Latest Weather Observations for Mount Crawford

IDS60801

Issued at 3:01 pm CST Monday 27 June 2016 (issued every 30 minutes, with the page automatically refreshed every 10 minutes)

About weather observations | Map of weather stations | Latest weather observations for SA | Other Formats
Station Details ID: 023878 Name: MOUNT CRAWFORD AWS Lat: -34.73 Lon: 138.93 Height: 525.0 m
Data from the previous 72 hours. | See also: Recent months at Mount Crawford
Date/Time
CST
Temp
°C
App
Temp
°C
Dew
Point
°C
Rel
Hum
%
Delta-T
°C
Wind Press
QNH
hPa
Press
MSL
hPa
Rain since
9am
mm
Dir  Spd
km/h
Gust
km/h
Spd
kts
Gust
kts
27/03:00pm 10.4 5.4 4.8 68 2.6 WSW 20 32 11 17 1020.0 1020.3 0.0
27/02:30pm 10.9 6.5 4.8 66 2.8 SW 17 30 9 16 1020.0 1020.3 0.0
27/02:00pm 10.4 5.3 4.1 65 2.9 WSW 20 33 11 18 1019.8 1020.1 0.0
27/01:30pm 10.5 5.1 4.4 66 2.8 WSW 22 32 12 17 1020.0 1020.3 0.0
27/01:00pm 10.1 5.4 6.1 76 1.9 WSW 20 30 11 16 1020.1 1020.4 0.0
27/12:30pm 9.5 6.2 6.2 80 1.6 SW 13 24 7 13 1020.1 1020.4 0.0
27/12:00pm 9.5 5.1 7.6 88 0.9 WSW 20 30 11 16 1020.4 1020.7 0.0
27/11:30am 9.1 6.1 9.1 100 0.0 WSW 15 24 8 13 1020.6 1021.0 0.0
27/11:00am 9.0 5.9 9.0 100 0.0 WSW 15 20 8 11 1020.5 1020.9 0.0
27/10:30am 8.6 - - - - SW 13 22 7 12 1020.4 1020.7 0.0
27/10:00am 7.9 5.3 7.9 100 0.0 SW 11 20 6 11 1020.1 1020.4 0.0
27/09:30am 7.6 5.0 7.6 100 0.0 SW 11 17 6 9 1019.8 1020.1 0.0
27/09:00am 7.2 4.8 7.2 100 0.0 WSW 9 15 5 8 1019.6 1019.9 2.2
27/08:30am 7.0 5.0 7.0 100 0.0 W 7 9 4 5 1019.2 1019.5 2.2
27/08:00am 6.8 4.4 6.8 100 0.0 W 9 11 5 6 1018.8 1019.2 2.2
27/07:30am 6.6 4.1 6.6 100 0.0 WSW 9 13 5 7 1018.5 1018.8 2.2
27/07:00am 6.6 3.3 6.6 100 0.0 W 13 17 7 9 1018.0 1018.3 2.2
27/06:30am 6.6 2.6 6.6 100 0.0 W 17 22 9 12 1017.6 1017.9 2.2
27/06:00am 6.4 2.7 6.4 100 0.0 W 15 19 8 10 1017.2 1017.4 2.0
27/05:30am 6.4 2.0 6.4 100 0.0 W 19 24 10 13 1016.8 1017.1 2.0
27/05:00am 6.4 1.8 6.4 100 0.0 WNW 20 26 11 14 1016.3 1016.6 2.0
27/04:30am 6.2 2.1 6.2 100 0.0 WNW 17 22 9 12 1016.2 1016.5 2.0
27/04:00am 6.1 2.0 6.1 100 0.0 WNW 17 22 9 12 1016.1 1016.4 1.4
27/03:30am 6.0 1.9 6.0 100 0.0 WNW 17 22 9 12 1016.0 1016.3 1.2
27/03:00am 6.1 2.0 6.1 100 0.0 WNW 17 22 9 12 1016.1 1016.4 1.0
27/02:30am 5.9 1.7 5.9 100 0.0 NW 17 22 9 12 1016.1 1016.4 0.8
27/02:00am 5.8 1.2 5.8 100 0.0 WNW 19 28 10 15 1016.0 1016.3 0.8
27/01:30am 5.7 1.5 5.7 100 0.0 WNW 17 24 9 13 1016.0 1016.3 0.6
27/01:00am 5.5 1.3 5.5 100 0.0 WNW 17 24 9 13 1016.1 1016.4 0.6
27/12:30am 5.3 0.6 5.3 100 0.0 WNW 19 24 10 13 1016.1 1016.4 0.4
27/12:00am 5.4 0.8 5.4 100 0.0 WNW 19 24 10 13 1016.1 1016.4 0.4
 
Date/Time
CST
Temp
°C
App
Temp
°C
Dew
Point
°C
Rel
Hum
%
Delta-T
°C
Wind Press
QNH
hPa
Press
MSL
hPa
Rain since
9am
mm
Dir  Spd
km/h
Gust
km/h
Spd
kts
Gust
kts
26/11:30pm 5.6 1.0 5.6 100 0.0 NW 19 24 10 13 1015.9 1016.2 0.4
26/11:00pm 5.7 1.5 5.7 100 0.0 NW 17 24 9 13 1015.8 1016.1 0.4
26/10:30pm 5.5 1.2 5.4 99 0.0 NW 17 22 9 12 1015.9 1016.2 0.4
26/10:00pm 5.5 1.2 5.4 99 0.0 NW 17 24 9 13 1015.9 1016.2 0.4
26/09:30pm 5.8 1.6 5.7 99 0.0 NW 17 24 9 13 1015.8 1016.1 0.4
26/09:00pm 5.8 1.6 5.7 99 0.0 NW 17 24 9 13 1015.9 1016.2 0.4
26/08:30pm 6.0 1.8 5.9 99 0.0 NW 17 22 9 12 1015.9 1016.2 0.4
26/08:00pm 6.1 2.3 6.0 99 0.0 NW 15 20 8 11 1015.9 1016.2 0.4
26/07:30pm 6.1 2.7 6.0 99 0.0 NW 13 19 7 10 1015.8 1016.1 0.4
26/07:00pm 6.4 2.7 6.3 99 0.0 NW 15 19 8 10 1015.7 1016.0 0.4
26/06:30pm 6.3 3.3 6.0 98 0.1 NW 11 15 6 8 1015.5 1015.7 0.4
26/06:00pm 6.4 3.4 6.0 97 0.2 NNW 11 13 6 7 1015.3 1015.5 0.4
26/05:30pm 6.5 3.5 6.1 97 0.2 NNW 11 15 6 8 1014.9 1015.2 0.4
26/05:00pm 6.6 4.0 5.9 95 0.3 NW 9 11 5 6 1014.9 1015.2 0.4
26/04:30pm 6.7 3.3 5.8 94 0.4 NW 13 19 7 10 1014.7 1015.0 0.4
26/04:00pm 6.6 2.6 6.5 99 0.0 NW 17 24 9 13 1014.5 1014.8 0.4
26/03:30pm 6.2 2.8 6.1 99 0.0 NW 13 19 7 10 1014.5 1014.8 0.4
26/03:00pm 6.3 0.8 6.0 98 0.1 NW 24 37 13 20 1014.6 1014.9 0.4
26/02:30pm 6.6 1.7 5.1 90 0.7 WNW 20 35 11 19 1014.7 1015.0 0.4
26/02:00pm 7.6 3.7 5.4 86 1.0 WNW 15 22 8 12 1014.7 1015.0 0.0
26/01:30pm 8.0 3.6 4.9 81 1.4 WNW 17 28 9 15 1014.8 1015.1 0.0
26/01:00pm 8.0 3.7 5.3 83 1.2 WNW 17 26 9 14 1015.2 1015.4 0.0
26/12:30pm 7.9 3.6 5.4 84 1.2 WNW 17 28 9 15 1015.4 1015.6 0.0
26/12:00pm 8.9 4.1 4.9 76 1.8 NNW 19 26 10 14 1015.9 1016.2 0.0
26/11:30am 8.4 4.5 5.3 81 1.4 NNW 15 24 8 13 1016.6 1016.9 0.0
26/11:00am 8.2 3.9 5.1 81 1.4 NNW 17 24 9 13 1016.9 1017.2 0.0
26/10:30am 7.0 3.3 4.3 83 1.2 NW 13 20 7 11 1017.4 1017.7 0.0
26/10:00am 6.8 2.3 4.3 84 1.1 NNW 17 24 9 13 1017.4 1017.7 0.0
26/09:30am 6.8 3.1 4.3 84 1.1 NW 13 19 7 10 1017.6 1017.9 0.0
26/09:00am 6.7 2.1 3.9 82 1.2 NNW 17 22 9 12 1017.5 1017.8 0.0
26/08:30am 6.5 1.4 3.3 80 1.4 N 19 28 10 15 1017.5 1017.8 0.0
26/08:00am 6.5 1.8 3.1 79 1.5 NNW 17 24 9 13 1017.5 1017.8 0.0
26/07:30am 6.8 2.9 3.2 78 1.6 N 13 20 7 11 1017.3 1017.6 0.0
26/07:00am 6.3 2.4 3.5 82 1.2 NNE 13 17 7 9 1016.9 1017.2 0.0
26/06:30am 6.5 2.6 3.5 81 1.3 NNE 13 17 7 9 1016.5 1016.8 0.0
26/06:00am 6.5 2.7 3.7 82 1.2 N 13 17 7 9 1017.1 1017.3 0.0
26/05:30am 6.5 1.9 3.7 82 1.2 N 17 22 9 12 1017.2 1017.4 0.0
26/05:00am 6.6 2.0 3.6 81 1.3 NNW 17 22 9 12 1017.2 1017.4 0.0
26/04:30am 6.6 1.4 3.8 82 1.2 N 20 28 11 15 1017.5 1017.8 0.0
26/04:00am 6.7 1.5 3.5 80 1.4 NNW 20 28 11 15 1017.9 1018.2 0.0
26/03:30am 6.8 2.1 3.4 79 1.5 N 17 24 9 13 1017.9 1018.2 0.0
26/03:00am 6.7 2.5 3.9 82 1.2 N 15 17 8 9 1018.0 1018.3 0.0
26/02:30am 6.4 2.6 3.9 84 1.1 NNE 13 20 7 11 1018.2 1018.5 0.0
26/02:00am 6.4 1.8 3.9 84 1.1 NNE 17 20 9 11 1018.3 1018.6 0.0
26/01:30am 6.4 1.4 3.7 83 1.2 NNE 19 24 10 13 1018.7 1019.0 0.0
26/01:00am 6.6 1.4 3.8 82 1.2 NNE 20 24 11 13 1018.7 1019.0 0.0
26/12:30am 6.5 2.3 4.0 84 1.1 NNE 15 20 8 11 1018.3 1018.6 0.0
26/12:00am 6.5 2.8 4.2 85 1.0 NNE 13 17 7 9 1018.8 1019.2 0.0
 
Date/Time
CST
Temp
°C
App
Temp
°C
Dew
Point
°C
Rel
Hum
%
Delta-T
°C
Wind Press
QNH
hPa
Press
MSL
hPa
Rain since
9am
mm
Dir  Spd
km/h
Gust
km/h
Spd
kts
Gust
kts
25/11:30pm 6.3 2.6 4.5 88 0.8 NNE 13 19 7 10 1019.3 1019.6 0.0
25/11:00pm 6.3 2.6 4.5 88 0.8 NNE 13 17 7 9 1019.4 1019.7 0.0
25/10:30pm 6.4 2.7 4.4 87 0.9 NNE 13 19 7 10 1019.9 1020.2 0.0
25/10:00pm 6.4 3.1 4.7 89 0.8 NNE 11 13 6 7 1020.1 1020.4 0.0
25/09:30pm 6.5 2.8 4.7 88 0.8 NE 13 19 7 10 1020.0 1020.3 0.0
25/09:00pm 6.6 2.9 4.6 87 0.9 NE 13 15 7 8 1019.8 1020.1 0.0
25/08:30pm 6.7 3.0 4.7 87 0.9 NNE 13 15 7 8 1020.4 1020.7 0.0
25/08:00pm 6.8 4.0 5.0 88 0.8 NNE 9 11 5 6 1020.3 1020.6 0.0
25/07:30pm 7.0 3.4 5.2 88 0.8 NNE 13 17 7 9 1020.9 1021.3 0.0
25/07:00pm 7.1 3.6 5.4 89 0.8 N 13 22 7 12 1021.0 1021.4 0.0
25/06:30pm 7.0 3.5 5.6 91 0.6 NE 13 17 7 9 1020.6 1021.0 0.0
25/06:00pm 7.1 4.4 5.7 91 0.6 NE 9 11 5 6 1020.5 1020.9 0.0
25/05:30pm 7.4 5.3 5.7 89 0.8 N 6 7 3 4 1020.5 1020.9 0.0
25/05:00pm 7.5 6.5 5.5 87 0.9 CALM 0 0 0 0 1020.5 1020.9 0.0
25/04:30pm 7.7 5.5 5.5 86 1.0 N 6 7 3 4 1020.7 1021.1 0.0
25/04:00pm 7.8 5.0 5.1 83 1.2 N 9 11 5 6 1020.8 1021.2 0.0
25/03:30pm 7.9 5.1 5.0 82 1.3 N 9 13 5 7 1020.9 1021.3 0.0
25/03:00pm 8.1 5.4 5.4 83 1.2 NNE 9 11 5 6 1021.2 1021.5 0.0
25/02:30pm 8.0 4.8 5.3 83 1.2 N 11 15 6 8 1021.2 1021.5 0.0
25/02:00pm 7.8 4.6 5.1 83 1.2 NNW 11 15 6 8 1021.4 1021.7 0.0
25/01:30pm 7.9 4.8 5.5 85 1.1 NW 11 17 6 9 1021.8 1022.1 0.0
25/01:00pm 7.8 4.5 6.4 91 0.7 NW 13 17 7 9 1022.2 1022.6 0.0
25/12:30pm 8.2 4.5 6.5 89 0.8 NW 15 22 8 12 1022.6 1023.0 0.0
25/12:00pm 8.3 5.3 7.7 96 0.3 NW 13 20 7 11 1023.0 1023.4 0.0
25/11:30am 7.5 4.5 7.5 100 0.0 N 13 19 7 10 1023.5 1023.8 0.0
25/11:00am 7.0 4.2 7.0 100 0.0 NW 11 15 6 8 1023.8 1024.2 0.0
25/10:30am 6.5 4.0 6.5 100 0.0 NW 9 13 5 7 1024.0 1024.4 0.0
25/10:00am 5.9 2.9 5.9 100 0.0 NW 11 15 6 8 1023.9 1024.3 0.0
25/09:30am 6.0 3.4 6.0 100 0.0 WNW 9 13 5 7 1023.8 1024.2 0.0
25/09:00am 6.0 3.4 6.0 100 0.0 NW 9 13 5 7 1023.6 1023.9 0.0
25/08:30am 5.4 2.7 5.4 100 0.0 NNW 9 15 5 8 1023.5 1023.8 0.0
25/08:00am 5.2 2.0 5.2 100 0.0 NNW 11 15 6 8 1023.4 1023.7 0.0
25/07:30am 5.0 2.2 5.0 100 0.0 NW 9 15 5 8 1023.2 1023.5 0.0
25/07:00am 5.0 2.5 5.0 100 0.0 NNW 7 9 4 5 1022.9 1023.3 0.0
25/06:30am 4.6 1.7 4.6 100 0.0 NNW 9 11 5 6 1022.7 1023.1 0.0
25/06:00am 4.6 1.7 4.6 100 0.0 NW 9 11 5 6 1022.5 1022.9 0.0
25/05:30am 4.2 1.2 4.2 100 0.0 NNW 9 13 5 7 1022.4 1022.8 0.0
25/05:00am 4.6 1.7 4.6 100 0.0 NNW 9 13 5 7 1022.3 1022.7 0.0
25/04:30am 4.7 1.8 4.7 100 0.0 WNW 9 13 5 7 1022.2 1022.6 0.0
25/04:00am 5.0 2.2 5.0 100 0.0 NW 9 13 5 7 1022.1 1022.5 0.0
25/03:30am 4.9 2.0 4.9 100 0.0 NW 9 15 5 8 1022.2 1022.6 0.0
25/03:00am 4.6 1.3 4.5 99 0.0 NNW 11 13 6 7 1022.1 1022.5 0.0
25/02:30am 4.7 1.4 4.6 99 0.0 NNW 11 11 6 6 1022.0 1022.3 0.0
25/02:00am 4.7 1.7 4.3 97 0.2 WNW 9 9 5 5 1022.1 1022.5 0.0
25/01:30am 4.4 1.3 3.8 96 0.3 WSW 9 13 5 7 1021.8 1022.1 0.0
25/01:00am 4.5 1.4 3.6 94 0.4 W 9 9 5 5 1021.8 1022.1 0.0
25/12:30am 5.0 1.5 3.5 90 0.6 SW 11 13 6 7 1021.7 1022.0 0.0
25/12:00am 5.2 1.7 3.4 88 0.8 SW 11 15 6 8 1021.5 1021.8 0.0
 
Date/Time
CST
Temp
°C
App
Temp
°C
Dew
Point
°C
Rel
Hum
%
Delta-T
°C
Wind Press
QNH
hPa
Press
MSL
hPa
Rain since
9am
mm
Dir  Spd
km/h
Gust
km/h
Spd
kts
Gust
kts
24/11:30pm 5.3 1.8 3.5 88 0.8 SW 11 15 6 8 1021.5 1021.8 0.0
24/11:00pm 5.0 1.2 4.0 93 0.4 SW 13 15 7 8 1021.7 1022.0 0.0
24/10:30pm 5.2 1.4 4.0 92 0.5 SW 13 17 7 9 1021.6 1021.9 0.0
24/10:00pm 5.2 1.4 4.0 92 0.5 SW 13 17 7 9 1021.6 1021.9 0.0
24/09:30pm 5.6 2.1 5.3 98 0.1 WSW 13 20 7 11 1021.5 1021.8 0.0
24/09:00pm 4.9 2.0 4.8 99 0.0 WSW 9 13 5 7 1021.5 1021.8 0.0
24/08:30pm 5.1 1.9 5.0 99 0.0 WSW 11 15 6 8 1021.2 1021.5 0.0
24/08:00pm 5.2 1.6 5.1 99 0.0 WSW 13 17 7 9 1020.8 1021.2 0.0
24/07:30pm 5.5 2.0 5.4 99 0.0 WSW 13 17 7 9 1020.4 1020.7 0.0
24/07:00pm 5.2 1.6 4.8 97 0.2 WSW 13 15 7 8 1020.0 1020.3 0.0
24/06:30pm 5.3 1.6 4.4 94 0.4 WSW 13 20 7 11 1019.5 1019.8 0.0
24/06:00pm 5.3 1.6 4.3 93 0.4 WSW 13 17 7 9 1019.2 1019.5 0.0
24/05:30pm 6.0 1.5 4.2 88 0.8 WSW 17 24 9 13 1018.5 1018.8 0.0
24/05:00pm 6.7 1.7 4.4 85 1.0 WSW 20 32 11 17 1017.9 1018.2 0.0
24/04:30pm 7.9 3.2 5.0 82 1.3 WSW 19 26 10 14 1017.6 1017.9 0.0
24/04:00pm 6.9 0.3 4.0 82 1.3 WSW 28 43 15 23 1016.9 1017.2 0.0
24/03:30pm 8.0 1.7 4.0 76 1.8 WSW 26 43 14 23 1016.5 1016.8 0.0
24/03:07pm 7.5 0.8 3.4 75 1.8 WSW 28 46 15 25 1016.1 1016.4 0.0

Other Formats:

Comma delimited format used in spreadsheet applications
http://www.bom.gov.au/fwo/IDS60801/IDS60801.94678.axf

JavaScript Object Notation format (JSON) in row-major order
http://www.bom.gov.au/fwo/IDS60801/IDS60801.94678.json